createdAt,value
2019-06-27T00:01:00.455Z,23.10
2019-06-27T00:03:38.094Z,23.00
2019-06-27T00:06:15.634Z,23.00
2019-06-27T00:08:53.342Z,23.00
2019-06-27T00:11:30.857Z,23.00
2019-06-27T00:14:08.752Z,22.90
2019-06-27T00:16:46.311Z,22.90
2019-06-27T00:19:23.843Z,22.80
2019-06-27T00:22:01.479Z,22.80
2019-06-27T00:24:39.112Z,22.80
2019-06-27T00:27:16.722Z,22.70
2019-06-27T00:29:54.244Z,22.60
2019-06-27T00:32:31.734Z,22.60
2019-06-27T00:35:09.634Z,22.40
2019-06-27T00:37:47.195Z,22.30
2019-06-27T00:40:24.638Z,22.20
2019-06-27T00:43:02.243Z,22.00
2019-06-27T00:45:39.860Z,21.90
2019-06-27T00:48:17.417Z,21.80
2019-06-27T00:50:55.121Z,21.80
2019-06-27T00:53:32.836Z,21.60
2019-06-27T00:56:10.364Z,21.50
2019-06-27T00:58:49.760Z,21.40
2019-06-27T01:01:27.267Z,21.30
2019-06-27T01:04:04.893Z,21.20
2019-06-27T01:06:42.422Z,21.10
2019-06-27T01:09:20.020Z,21.00
2019-06-27T01:11:57.827Z,20.80
2019-06-27T01:14:35.742Z,20.80
2019-06-27T01:17:13.230Z,20.60
2019-06-27T01:19:50.897Z,20.50
2019-06-27T01:22:28.377Z,20.40
2019-06-27T01:25:06.320Z,20.30
2019-06-27T01:27:43.992Z,20.10
2019-06-27T01:30:21.596Z,20.00
2019-06-27T01:32:59.110Z,19.80
2019-06-27T01:35:39.417Z,19.80
2019-06-27T01:38:17.119Z,19.60
2019-06-27T01:40:54.767Z,19.50
2019-06-27T01:43:32.353Z,19.50
2019-06-27T01:46:09.930Z,19.40
2019-06-27T01:48:47.500Z,19.40
2019-06-27T01:51:25.065Z,19.30
2019-06-27T01:54:02.981Z,19.30
2019-06-27T01:56:40.414Z,19.10
2019-06-27T01:59:18.286Z,19.00
2019-06-27T02:01:55.987Z,19.00
2019-06-27T02:04:33.568Z,18.90
2019-06-27T02:07:11.309Z,18.80
2019-06-27T02:09:49.005Z,18.70
2019-06-27T02:12:26.599Z,18.60
2019-06-27T02:15:04.214Z,18.50
2019-06-27T02:17:41.815Z,18.40
2019-06-27T02:20:19.542Z,18.40
2019-06-27T02:22:57.088Z,18.30
2019-06-27T02:25:34.646Z,18.30
2019-06-27T02:28:12.219Z,18.20
2019-06-27T02:30:49.713Z,18.00
2019-06-27T02:33:27.265Z,18.00
2019-06-27T02:36:04.770Z,18.00
2019-06-27T02:38:42.380Z,17.90
2019-06-27T02:41:20.059Z,17.90
2019-06-27T02:43:57.601Z,17.80
2019-06-27T02:46:35.189Z,17.80
2019-06-27T02:49:13.014Z,17.70
2019-06-27T02:51:50.666Z,17.70
2019-06-27T02:54:28.259Z,17.50
2019-06-27T02:57:05.930Z,17.50
2019-06-27T02:59:43.695Z,17.40
2019-06-27T03:02:21.598Z,17.30
2019-06-27T03:04:59.380Z,17.30
2019-06-27T03:07:36.880Z,17.20
2019-06-27T03:10:14.544Z,17.20
2019-06-27T03:12:52.273Z,17.10
2019-06-27T03:15:29.787Z,17.10
2019-06-27T03:18:07.265Z,17.10
2019-06-27T03:20:44.915Z,17.10
2019-06-27T03:23:22.365Z,17.20
2019-06-27T03:25:59.903Z,17.10
2019-06-27T03:28:51.615Z,17.10
2019-06-27T03:31:15.148Z,17.00
2019-06-27T03:33:52.810Z,17.00
2019-06-27T03:36:30.400Z,17.00
2019-06-27T03:39:08.076Z,16.90
2019-06-27T03:41:45.771Z,16.90
2019-06-27T03:44:23.481Z,17.00
2019-06-27T03:47:01.013Z,17.00
2019-06-27T03:49:38.551Z,16.90
2019-06-27T03:52:16.073Z,16.90
2019-06-27T03:54:53.695Z,17.00
2019-06-27T03:57:31.430Z,17.10
2019-06-27T04:00:08.975Z,17.20
2019-06-27T04:02:46.626Z,17.40
2019-06-27T04:05:24.186Z,17.40
2019-06-27T04:08:01.741Z,17.50
2019-06-27T04:10:39.381Z,17.60
2019-06-27T04:13:16.914Z,17.80
2019-06-27T04:15:54.657Z,17.90
2019-06-27T04:18:32.278Z,17.90
2019-06-27T04:21:09.929Z,17.90
2019-06-27T04:23:47.471Z,17.90
2019-06-27T04:26:25.001Z,17.70
2019-06-27T04:29:02.569Z,17.60
2019-06-27T04:31:40.170Z,17.50
2019-06-27T04:34:19.878Z,17.50
2019-06-27T04:36:55.371Z,17.50
2019-06-27T04:39:32.881Z,17.50
2019-06-27T04:42:10.646Z,17.50
2019-06-27T04:44:48.351Z,17.50
2019-06-27T04:47:26.127Z,17.50
2019-06-27T04:50:03.710Z,17.50
2019-06-27T04:52:43.640Z,17.50
2019-06-27T04:55:21.384Z,17.50
2019-06-27T04:57:59.001Z,17.50
2019-06-27T05:00:36.571Z,17.70
2019-06-27T05:03:14.201Z,17.90
2019-06-27T05:05:51.712Z,18.00
2019-06-27T05:08:29.191Z,18.20
2019-06-27T05:11:06.747Z,18.30
2019-06-27T05:13:44.406Z,18.40
2019-06-27T05:16:22.035Z,18.60
2019-06-27T05:18:59.572Z,18.60
2019-06-27T05:21:37.093Z,18.50
2019-06-27T05:24:14.670Z,18.40
2019-06-27T05:26:52.137Z,18.30
2019-06-27T05:29:29.654Z,18.10
2019-06-27T05:32:07.235Z,18.00
2019-06-27T05:34:44.843Z,17.90
2019-06-27T05:37:22.509Z,17.80
2019-06-27T05:40:00.394Z,17.60
2019-06-27T05:42:37.906Z,17.60
2019-06-27T05:45:15.386Z,17.70
2019-06-27T05:47:52.923Z,17.70
2019-06-27T05:50:30.436Z,17.70
2019-06-27T05:53:08.024Z,17.80
2019-06-27T05:55:45.575Z,17.80
2019-06-27T05:58:23.215Z,17.80
2019-06-27T06:01:00.693Z,17.90
2019-06-27T06:03:38.365Z,18.00
2019-06-27T06:06:15.995Z,18.10
2019-06-27T06:08:53.495Z,18.10
2019-06-27T06:11:30.987Z,18.20
2019-06-27T06:14:08.587Z,18.20
2019-06-27T06:16:46.330Z,18.20
2019-06-27T06:19:23.941Z,18.20
2019-06-27T06:22:01.469Z,18.20
2019-06-27T06:24:39.010Z,18.20
2019-06-27T06:27:16.705Z,18.20
2019-06-27T06:29:54.265Z,18.30
2019-06-27T06:32:31.799Z,18.40
2019-06-27T06:35:09.344Z,18.40
2019-06-27T06:37:46.991Z,18.40
2019-06-27T06:40:24.562Z,18.30
2019-06-27T06:43:02.102Z,18.30
2019-06-27T06:45:39.762Z,18.30
2019-06-27T06:48:17.266Z,18.40
2019-06-27T06:50:54.896Z,18.40
2019-06-27T06:53:32.410Z,18.50
2019-06-27T06:56:09.949Z,18.50
2019-06-27T06:58:47.468Z,18.50
2019-06-27T07:01:24.998Z,18.50
2019-06-27T07:04:02.564Z,18.50
2019-06-27T07:06:40.198Z,18.70
2019-06-27T07:09:17.784Z,18.80
2019-06-27T07:11:55.395Z,18.80
2019-06-27T07:14:33.041Z,18.90
2019-06-27T07:17:10.671Z,18.90
2019-06-27T07:19:48.411Z,18.90
2019-06-27T07:22:25.946Z,18.90
2019-06-27T07:25:03.665Z,19.00
2019-06-27T07:27:41.179Z,19.00
2019-06-27T07:30:18.770Z,19.00
2019-06-27T07:32:56.682Z,19.00
2019-06-27T07:35:34.431Z,19.20
2019-06-27T07:38:11.916Z,19.30
2019-06-27T07:40:49.565Z,19.40
2019-06-27T07:43:27.155Z,19.50
2019-06-27T07:46:04.679Z,19.60
2019-06-27T07:48:42.292Z,19.70
2019-06-27T07:51:19.859Z,19.70
2019-06-27T07:53:57.333Z,19.70
2019-06-27T07:56:34.854Z,19.80
2019-06-27T07:59:12.350Z,19.90
2019-06-27T08:01:49.991Z,20.00
2019-06-27T08:04:27.683Z,20.00
2019-06-27T08:07:05.505Z,20.20
2019-06-27T08:09:43.095Z,20.20
2019-06-27T08:12:20.625Z,20.30
2019-06-27T08:14:58.286Z,20.30
2019-06-27T08:17:35.793Z,20.30
2019-06-27T08:20:13.613Z,20.30
2019-06-27T08:22:51.138Z,20.40
2019-06-27T08:25:28.689Z,20.50
2019-06-27T08:28:06.383Z,20.60
2019-06-27T08:30:43.918Z,20.60
2019-06-27T08:33:21.484Z,20.60
2019-06-27T08:35:59.054Z,20.70
2019-06-27T08:38:36.543Z,20.80
2019-06-27T08:41:14.317Z,20.90
2019-06-27T08:43:51.716Z,20.90
2019-06-27T08:46:30.030Z,21.00
2019-06-27T08:49:06.899Z,21.10
2019-06-27T08:51:44.429Z,21.00
2019-06-27T08:54:22.144Z,21.10
2019-06-27T08:56:59.709Z,21.20
2019-06-27T08:59:37.324Z,21.20
2019-06-27T09:02:14.818Z,21.20
2019-06-27T09:04:52.442Z,21.30
2019-06-27T09:07:30.031Z,21.40
2019-06-27T09:10:07.686Z,21.60
2019-06-27T09:12:45.382Z,21.70
2019-06-27T09:15:22.960Z,21.80
2019-06-27T09:18:00.647Z,21.90
2019-06-27T09:20:40.681Z,21.90
2019-06-27T09:23:18.227Z,21.90
2019-06-27T09:25:55.846Z,22.00
2019-06-27T09:28:33.338Z,22.00
2019-06-27T09:31:10.852Z,22.00
2019-06-27T09:33:48.348Z,22.10
2019-06-27T09:36:26.076Z,22.20
2019-06-27T09:39:03.930Z,22.20
2019-06-27T09:41:41.430Z,22.30
2019-06-27T09:44:19.212Z,22.40
2019-06-27T09:46:56.950Z,22.40
2019-06-27T09:49:34.558Z,22.40
2019-06-27T09:52:12.225Z,22.60
2019-06-27T09:54:49.751Z,22.80
2019-06-27T09:57:27.456Z,22.80
2019-06-27T10:00:05.028Z,22.90
2019-06-27T10:02:43.034Z,22.90
2019-06-27T10:05:20.112Z,23.00
2019-06-27T10:07:58.055Z,23.00
2019-06-27T10:10:35.569Z,23.10
2019-06-27T10:13:13.074Z,23.10
2019-06-27T10:15:50.560Z,23.20
2019-06-27T10:18:28.277Z,23.10
2019-06-27T10:21:05.877Z,23.10
2019-06-27T10:23:43.528Z,23.30
2019-06-27T10:26:20.994Z,23.50
2019-06-27T10:28:58.499Z,23.50
2019-06-27T10:31:36.011Z,23.60
2019-06-27T10:34:13.541Z,23.80
2019-06-27T10:36:51.816Z,24.00
2019-06-27T10:39:29.362Z,24.00
2019-06-27T10:42:07.057Z,24.00
2019-06-27T10:44:44.801Z,24.10
2019-06-27T10:47:22.350Z,24.20
2019-06-27T10:49:59.938Z,24.30
2019-06-27T10:52:37.633Z,24.40
2019-06-27T10:55:15.128Z,24.50
2019-06-27T10:57:52.823Z,24.60
2019-06-27T11:00:30.358Z,24.60
2019-06-27T11:03:15.504Z,24.70
2019-06-27T11:05:45.688Z,24.80
2019-06-27T11:08:23.184Z,24.80
2019-06-27T11:11:01.053Z,24.80
2019-06-27T11:13:38.630Z,25.00
2019-06-27T11:16:16.116Z,25.10
2019-06-27T11:18:53.864Z,25.20
2019-06-27T11:21:31.575Z,25.20
2019-06-27T11:24:09.409Z,25.30
2019-06-27T11:26:47.078Z,25.30
2019-06-27T11:29:24.650Z,25.30
2019-06-27T11:32:02.320Z,25.40
2019-06-27T11:34:39.934Z,25.40
2019-06-27T11:37:17.422Z,25.40
2019-06-27T11:39:54.944Z,25.40
2019-06-27T11:42:32.447Z,25.60
2019-06-27T11:45:09.979Z,25.90
2019-06-27T11:47:47.504Z,26.00
2019-06-27T11:50:25.026Z,26.10
2019-06-27T11:53:02.549Z,26.30
2019-06-27T11:55:40.065Z,26.50
2019-06-27T11:58:17.578Z,28.30
2019-06-27T12:00:55.162Z,31.80
2019-06-27T12:03:48.176Z,34.40
2019-06-27T12:06:10.534Z,35.80
2019-06-27T12:08:48.044Z,37.00
2019-06-27T12:11:25.815Z,37.70
2019-06-27T12:14:03.335Z,37.10
2019-06-27T12:16:41.015Z,36.10
2019-06-27T12:19:18.612Z,35.40
2019-06-27T12:21:56.160Z,34.70
2019-06-27T12:24:33.726Z,34.60
2019-06-27T12:27:11.406Z,35.00
2019-06-27T12:29:48.912Z,35.60
2019-06-27T12:32:26.432Z,36.40
2019-06-27T12:35:03.951Z,37.20
2019-06-27T12:37:41.556Z,38.20
2019-06-27T12:40:19.093Z,39.60
2019-06-27T12:42:56.649Z,40.30
2019-06-27T12:45:34.154Z,40.50
2019-06-27T12:48:11.676Z,41.10
2019-06-27T12:50:49.247Z,41.10
2019-06-27T12:53:26.815Z,41.10
2019-06-27T12:56:04.330Z,41.30
2019-06-27T12:58:41.870Z,41.40
2019-06-27T13:01:29.489Z,41.70
2019-06-27T13:04:22.327Z,41.50
2019-06-27T13:06:44.546Z,42.00
2019-06-27T13:09:22.108Z,42.10
2019-06-27T13:11:59.726Z,41.50
2019-06-27T13:14:37.325Z,40.90
2019-06-27T13:17:14.908Z,40.40
2019-06-27T13:19:52.568Z,40.10
2019-06-27T13:22:30.376Z,40.50
2019-06-27T13:25:07.930Z,41.60
2019-06-27T13:27:45.546Z,41.30
2019-06-27T13:30:23.155Z,40.90
2019-06-27T13:33:00.626Z,41.10
2019-06-27T13:35:38.160Z,42.20
2019-06-27T13:38:15.739Z,43.40
2019-06-27T13:40:53.257Z,44.40
2019-06-27T13:43:30.835Z,44.60
2019-06-27T13:46:08.514Z,45.10
2019-06-27T13:48:46.070Z,45.70
2019-06-27T13:51:23.640Z,45.00
2019-06-27T13:54:01.196Z,44.30
2019-06-27T13:56:38.732Z,43.50
2019-06-27T13:59:16.224Z,43.70
2019-06-27T14:01:53.768Z,43.40
2019-06-27T14:04:31.266Z,43.50
2019-06-27T14:07:08.792Z,43.30
2019-06-27T14:09:53.570Z,42.90
2019-06-27T14:12:23.898Z,42.80
2019-06-27T14:15:01.435Z,43.50
2019-06-27T14:17:39.111Z,43.10
2019-06-27T14:20:16.645Z,42.40
2019-06-27T14:22:54.209Z,42.20
2019-06-27T14:25:31.718Z,42.30
2019-06-27T14:28:09.206Z,42.50
2019-06-27T14:30:46.730Z,42.00
2019-06-27T14:33:24.287Z,41.50
2019-06-27T14:36:01.881Z,41.40
2019-06-27T14:38:39.654Z,40.40
2019-06-27T14:41:17.491Z,39.40
2019-06-27T14:43:55.001Z,39.20
2019-06-27T14:46:32.676Z,39.00
2019-06-27T14:49:10.368Z,38.60
2019-06-27T14:51:47.949Z,38.90
2019-06-27T14:54:25.955Z,39.60
2019-06-27T14:57:03.505Z,40.00
2019-06-27T14:59:40.979Z,40.10
2019-06-27T15:02:18.533Z,40.40
2019-06-27T15:04:56.072Z,40.30
2019-06-27T15:07:33.585Z,40.20
2019-06-27T15:10:11.151Z,40.60
2019-06-27T15:12:57.139Z,41.70
2019-06-27T15:15:26.232Z,42.10
2019-06-27T15:18:03.783Z,41.50
2019-06-27T15:20:41.458Z,41.20
2019-06-27T15:23:18.998Z,40.80
2019-06-27T15:25:56.562Z,41.00
2019-06-27T15:28:34.431Z,41.90
2019-06-27T15:31:12.778Z,42.40
2019-06-27T15:33:52.480Z,41.70
2019-06-27T15:36:36.976Z,41.30
2019-06-27T15:39:15.956Z,41.70
2019-06-27T15:41:54.493Z,41.80
2019-06-27T15:44:32.059Z,41.70
2019-06-27T15:47:12.360Z,41.80
2019-06-27T15:49:50.747Z,42.20
2019-06-27T15:52:28.449Z,43.20
2019-06-27T15:55:12.252Z,43.70
2019-06-27T15:57:47.164Z,44.00
2019-06-27T16:00:24.976Z,44.30
2019-06-27T16:03:02.571Z,44.00
2019-06-27T16:05:40.056Z,43.50
2019-06-27T16:08:17.697Z,42.80
2019-06-27T16:11:13.843Z,42.70
2019-06-27T16:13:51.409Z,42.80
2019-06-27T16:16:29.121Z,42.90
2019-06-27T16:19:06.697Z,42.90
2019-06-27T16:21:44.305Z,43.00
2019-06-27T16:24:21.756Z,43.20
2019-06-27T16:26:59.866Z,43.90
2019-06-27T16:29:38.395Z,44.00
2019-06-27T16:32:16.351Z,44.00
2019-06-27T16:34:54.194Z,43.70
2019-06-27T16:40:16.188Z,43.10
2019-06-27T16:42:54.584Z,42.60
2019-06-27T16:45:32.725Z,42.40
2019-06-27T16:48:11.224Z,42.20
2019-06-27T16:50:49.637Z,41.90
2019-06-27T16:53:28.232Z,41.70
2019-06-27T16:56:06.106Z,41.70
2019-06-27T16:58:44.192Z,41.70
2019-06-27T17:01:22.266Z,41.50
2019-06-27T17:03:59.805Z,41.30
2019-06-27T17:06:41.952Z,40.80
2019-06-27T17:09:14.872Z,40.90
2019-06-27T17:11:52.499Z,40.70
2019-06-27T17:14:30.044Z,40.70
2019-06-27T17:17:07.572Z,40.40
2019-06-27T17:19:45.110Z,40.40
2019-06-27T17:22:22.701Z,40.10
2019-06-27T17:25:00.177Z,40.10
2019-06-27T17:27:37.715Z,39.80
2019-06-27T17:30:15.952Z,40.00
2019-06-27T17:32:54.116Z,39.80
2019-06-27T17:35:32.243Z,39.70
2019-06-27T17:38:10.429Z,39.50
2019-06-27T17:40:51.340Z,39.00
2019-06-27T17:43:32.068Z,38.50
2019-06-27T17:46:09.996Z,38.20
2019-06-27T17:48:48.309Z,38.10
2019-06-27T17:51:25.929Z,38.10
2019-06-27T17:54:03.479Z,37.70
2019-06-27T17:56:40.994Z,37.50
2019-06-27T17:59:18.535Z,37.20
2019-06-27T18:01:56.077Z,36.60
2019-06-27T18:04:33.601Z,36.30
2019-06-27T18:07:14.674Z,36.10
2019-06-27T18:09:48.712Z,35.90
2019-06-27T18:12:26.223Z,35.50
2019-06-27T18:15:03.756Z,34.70
2019-06-27T18:17:41.257Z,33.70
2019-06-27T18:20:18.774Z,33.00
2019-06-27T18:22:56.289Z,32.40
2019-06-27T18:25:33.782Z,32.00
2019-06-27T18:28:11.405Z,31.50
2019-06-27T18:30:48.974Z,31.10
2019-06-27T18:33:26.524Z,30.70
2019-06-27T18:36:04.017Z,30.20
2019-06-27T18:38:41.559Z,29.70
2019-06-27T18:41:19.158Z,29.30
2019-06-27T18:43:56.681Z,29.00
2019-06-27T18:46:34.173Z,28.80
2019-06-27T18:49:11.689Z,28.60
2019-06-27T18:51:49.209Z,28.40
2019-06-27T18:54:28.315Z,28.30
2019-06-27T18:57:06.344Z,28.10
2019-06-27T18:59:44.504Z,27.70
2019-06-27T19:02:22.707Z,27.50
2019-06-27T19:05:00.205Z,27.10
2019-06-27T19:07:45.295Z,26.60
2019-06-27T19:10:16.332Z,26.00
2019-06-27T19:12:54.294Z,25.60
2019-06-27T19:15:32.846Z,25.20
2019-06-27T19:18:29.404Z,24.90
2019-06-27T19:21:08.954Z,24.60
2019-06-27T19:24:04.907Z,24.20
2019-06-27T19:26:43.086Z,23.80
2019-06-27T19:29:20.961Z,23.40
2019-06-27T19:31:59.106Z,23.00
2019-06-27T19:34:36.963Z,22.60
2019-06-27T19:37:14.735Z,22.30
2019-06-27T19:39:52.820Z,22.00
2019-06-27T19:42:30.791Z,21.80
2019-06-27T19:45:08.714Z,21.50
2019-06-27T19:47:46.725Z,21.30
2019-06-27T19:50:24.229Z,21.10
2019-06-27T19:53:02.293Z,20.90
2019-06-27T19:55:40.569Z,20.90
2019-06-27T19:58:18.602Z,20.70
2019-06-27T20:00:56.624Z,20.60
2019-06-27T20:03:34.971Z,20.50
2019-06-27T20:06:13.277Z,20.40
2019-06-27T20:08:51.368Z,20.40
2019-06-27T20:11:29.977Z,20.30
2019-06-27T20:14:10.135Z,20.20
2019-06-27T20:16:51.827Z,20.10
2019-06-27T20:19:30.284Z,20.10
2019-06-27T20:22:09.105Z,20.00
2019-06-27T20:24:47.005Z,20.00
2019-06-27T20:27:25.566Z,19.90
2019-06-27T20:30:03.089Z,19.80
2019-06-27T20:32:40.796Z,19.80
2019-06-27T20:35:18.390Z,19.80
2019-06-27T20:37:55.885Z,19.70
2019-06-27T20:40:33.404Z,19.60
2019-06-27T20:43:10.903Z,19.60
2019-06-27T20:45:51.719Z,19.50
2019-06-27T20:48:29.316Z,19.40
2019-06-27T20:51:06.878Z,19.40
2019-06-27T20:53:44.433Z,19.30
2019-06-27T20:56:21.954Z,19.20
2019-06-27T20:58:59.486Z,19.20
2019-06-27T21:01:37.249Z,19.10
2019-06-27T21:04:15.187Z,19.00
2019-06-27T21:06:52.705Z,19.00
2019-06-27T21:09:31.269Z,18.90
2019-06-27T21:12:08.889Z,18.80
2019-06-27T21:14:46.414Z,18.80
2019-06-27T21:17:24.032Z,18.70
2019-06-27T21:20:01.764Z,18.60
2019-06-27T21:22:39.331Z,18.60
2019-06-27T21:25:16.840Z,18.50
2019-06-27T21:27:54.350Z,18.40
2019-06-27T21:30:31.838Z,18.40
2019-06-27T21:33:09.525Z,18.30
2019-06-27T21:35:47.097Z,18.30
2019-06-27T21:38:24.682Z,18.20
2019-06-27T21:41:02.183Z,18.20
2019-06-27T21:43:39.796Z,18.10
2019-06-27T21:46:17.329Z,18.10
2019-06-27T21:48:54.856Z,18.00
2019-06-27T21:51:32.433Z,18.00
2019-06-27T21:54:09.986Z,18.00
2019-06-27T21:56:47.849Z,17.90
2019-06-27T21:59:25.409Z,17.80
2019-06-27T22:02:03.009Z,17.80
2019-06-27T22:04:40.553Z,17.70
2019-06-27T22:07:18.088Z,17.70
2019-06-27T22:09:55.593Z,17.60
2019-06-27T22:12:34.469Z,17.60
2019-06-27T22:15:10.605Z,17.50
2019-06-27T22:17:48.107Z,17.50
2019-06-27T22:20:25.623Z,17.40
2019-06-27T22:23:05.342Z,17.40
2019-06-27T22:25:46.351Z,17.30
2019-06-27T22:28:21.645Z,17.30
2019-06-27T22:30:59.119Z,17.20
2019-06-27T22:33:36.793Z,17.20
2019-06-27T22:36:14.430Z,17.10
2019-06-27T22:39:10.501Z,17.10
2019-06-27T22:42:06.695Z,17.00
2019-06-27T22:45:02.758Z,16.90
2019-06-27T22:47:58.991Z,16.90
2019-06-27T22:50:55.115Z,16.80
2019-06-27T22:53:34.931Z,16.70
2019-06-27T22:56:12.726Z,16.70
2019-06-27T22:58:50.373Z,16.60
2019-06-27T23:01:28.040Z,16.60
2019-06-27T23:04:05.583Z,16.50
2019-06-27T23:06:43.159Z,16.50
2019-06-27T23:09:21.005Z,16.40
2019-06-27T23:11:58.604Z,16.30
2019-06-27T23:14:36.154Z,16.30
2019-06-27T23:17:13.697Z,16.20
2019-06-27T23:19:51.267Z,16.20
2019-06-27T23:22:28.989Z,16.20
2019-06-27T23:25:06.494Z,16.10
2019-06-27T23:27:44.039Z,16.00
2019-06-27T23:30:21.596Z,16.00
2019-06-27T23:32:59.111Z,15.90
2019-06-27T23:35:36.626Z,15.90
2019-06-27T23:38:14.176Z,15.80
2019-06-27T23:40:51.702Z,15.80
2019-06-27T23:43:29.276Z,15.70
2019-06-27T23:46:06.813Z,15.70
2019-06-27T23:48:44.441Z,15.70
2019-06-27T23:51:22.100Z,15.60
2019-06-27T23:53:59.738Z,15.60
2019-06-27T23:56:37.477Z,15.60
2019-06-27T23:59:15.019Z,15.50
